Gold Beach, Oregon
Current Conditions -  °F | °C
As of 8:16 PM on Wednesday 22 Oct 2014 (Local Time) from KBOK Reporting Station
Light Rain Light Rain  
Wind Chill: 59°   Ceiling: 500
Heat Index: 59°   Visibility: 5mi
Dew Point: 57°   Wind: 18mph
Humidity: 94%   Direction: 180°S
Pressure: 29.86"   Gusts: 29mph
Location:  42.41°N, 124.42°W
Report Text: KBOK 230316Z AUTO 18016G25KT 150V220 5SM -RA BR OVC005 15/14 A2986 RMK AO2 CIG 001V007 P0000 PK WND 19028/0300
Loading
Personal Weather Stations






























Interactive Weather Map
Tropical Storm Tracking
New forecast layout! Learn more

10-Day Weather Forecast

Advertisements
Track Severe Weather on mobile